createdAt,value
2022-11-04T00:01:24.294Z,36.00
2022-11-04T00:03:56.049Z,34.45
2022-11-04T00:06:27.034Z,37.35
2022-11-04T00:08:59.613Z,32.13
2022-11-04T00:11:48.425Z,34.53
2022-11-04T00:14:19.517Z,35.75
2022-11-04T00:17:08.226Z,34.00
2022-11-04T00:19:56.371Z,30.02
2022-11-04T00:22:44.518Z,33.48
2022-11-04T00:25:33.383Z,29.65
2022-11-04T00:28:24.173Z,29.52
2022-11-04T00:30:59.268Z,31.02
2022-11-04T00:33:30.350Z,32.03
2022-11-04T00:36:01.138Z,29.60
2022-11-04T00:38:31.920Z,30.85
2022-11-04T00:41:02.755Z,31.40
2022-11-04T00:43:33.569Z,31.93
2022-11-04T00:46:04.503Z,32.93
2022-11-04T00:48:35.321Z,31.95
2022-11-04T00:51:06.628Z,28.75
2022-11-04T00:53:37.877Z,32.05
2022-11-04T00:56:10.136Z,32.28
2022-11-04T00:58:41.020Z,35.08
2022-11-04T01:01:18.093Z,32.20
2022-11-04T01:03:52.208Z,30.37
2022-11-04T01:06:26.838Z,30.17
2022-11-04T01:09:06.987Z,30.48
2022-11-04T01:11:39.209Z,30.35
2022-11-04T01:14:10.089Z,29.45
2022-11-04T01:16:41.432Z,27.98
2022-11-04T01:19:13.484Z,31.30
2022-11-04T01:21:44.441Z,31.95
2022-11-04T01:24:15.791Z,31.15
2022-11-04T01:26:47.125Z,28.10
2022-11-04T01:29:18.744Z,32.03
2022-11-04T01:31:49.491Z,29.90
2022-11-04T01:34:21.049Z,28.65
2022-11-04T01:36:52.292Z,30.97
2022-11-04T01:39:23.467Z,29.60
2022-11-04T01:41:55.617Z,32.78
2022-11-04T01:44:48.045Z,58.50
2022-11-04T01:47:24.212Z,28.73
2022-11-04T01:49:57.505Z,42.25
2022-11-04T01:52:30.844Z,28.05
2022-11-04T01:55:04.777Z,24.35
2022-11-04T01:57:41.998Z,29.12
2022-11-04T02:00:14.327Z,22.35
2022-11-04T02:02:50.448Z,24.47
2022-11-04T02:05:22.510Z,26.87
2022-11-04T02:07:55.623Z,23.75
2022-11-04T02:10:29.369Z,21.57
2022-11-04T02:13:02.901Z,24.65
2022-11-04T02:15:48.579Z,23.02
2022-11-04T02:18:30.553Z,23.73
2022-11-04T02:21:08.674Z,22.73
2022-11-04T02:24:01.528Z,19.92
2022-11-04T02:26:54.464Z,19.27
2022-11-04T02:29:44.281Z,20.05
2022-11-04T02:32:23.574Z,23.22
2022-11-04T02:34:59.850Z,22.32
2022-11-04T02:37:39.410Z,22.87
2022-11-04T02:40:15.347Z,20.48
2022-11-04T02:43:10.524Z,22.23
2022-11-04T02:45:54.088Z,23.47
2022-11-04T02:48:33.406Z,21.60
2022-11-04T02:51:09.729Z,23.98
2022-11-04T02:53:43.190Z,21.55
2022-11-04T02:56:16.437Z,23.02
2022-11-04T02:58:52.862Z,21.52
2022-11-04T03:01:26.139Z,19.77
2022-11-04T03:04:05.184Z,19.87
2022-11-04T03:06:38.076Z,20.15
2022-11-04T03:09:10.854Z,21.95
2022-11-04T03:11:44.452Z,23.87
2022-11-04T03:14:17.930Z,21.60
2022-11-04T03:16:51.725Z,20.43
2022-11-04T03:19:47.945Z,19.80
2022-11-04T03:22:21.294Z,23.02
2022-11-04T03:24:53.348Z,19.98
2022-11-04T03:27:27.053Z,18.52
2022-11-04T03:30:09.635Z,19.27
2022-11-04T03:32:49.208Z,17.62
2022-11-04T03:35:20.354Z,18.17
2022-11-04T03:37:54.582Z,16.73
2022-11-04T03:40:24.907Z,18.27
2022-11-04T03:43:13.619Z,21.82
2022-11-04T03:45:46.071Z,22.32
2022-11-04T03:48:16.348Z,17.73
2022-11-04T03:50:49.943Z,21.05
2022-11-04T03:53:23.666Z,16.55
2022-11-04T03:56:06.934Z,18.15
2022-11-04T03:58:55.311Z,20.82
2022-11-04T04:01:28.794Z,17.82
2022-11-04T04:04:02.312Z,19.05
2022-11-04T04:06:35.607Z,15.18
2022-11-04T04:12:12.095Z,16.50
2022-11-04T04:14:51.201Z,21.45
2022-11-04T04:17:36.418Z,17.80
2022-11-04T04:20:19.535Z,18.85
2022-11-04T04:22:58.390Z,14.50
2022-11-04T04:25:49.082Z,14.05
2022-11-04T04:28:21.132Z,15.53
2022-11-04T04:30:56.370Z,12.98
2022-11-04T04:33:25.092Z,13.80
2022-11-04T04:36:00.329Z,14.35
2022-11-04T04:38:51.514Z,15.08
2022-11-04T04:41:45.388Z,13.22
2022-11-04T04:44:42.439Z,12.68
2022-11-04T04:47:16.656Z,13.90
2022-11-04T04:49:56.209Z,15.90
2022-11-04T04:52:28.893Z,15.63
2022-11-04T04:54:59.808Z,14.58
2022-11-04T04:57:30.561Z,16.48
2022-11-04T05:00:01.919Z,18.00
2022-11-04T05:02:32.802Z,14.68
2022-11-04T05:05:04.070Z,13.00
2022-11-04T05:07:35.364Z,12.75
2022-11-04T05:10:06.819Z,14.40
2022-11-04T05:12:59.842Z,13.40
2022-11-04T05:15:32.766Z,13.00
2022-11-04T05:18:04.821Z,12.82
2022-11-04T05:20:35.625Z,15.08
2022-11-04T05:23:06.436Z,12.05
2022-11-04T05:25:37.544Z,14.58
2022-11-04T05:28:09.168Z,13.85
2022-11-04T05:30:40.648Z,14.68
2022-11-04T05:33:11.934Z,16.17
2022-11-04T05:35:43.787Z,13.10
2022-11-04T05:38:14.757Z,13.83
2022-11-04T05:43:22.913Z,15.20
2022-11-04T05:45:54.194Z,13.95
2022-11-04T05:48:25.296Z,14.73
2022-11-04T05:51:06.262Z,17.40
2022-11-04T05:53:37.599Z,16.73
2022-11-04T05:56:14.883Z,12.85
2022-11-04T05:58:41.026Z,11.90
2022-11-04T06:01:32.496Z,15.25
2022-11-04T06:04:04.806Z,12.50
2022-11-04T06:06:38.098Z,12.82
2022-11-04T06:09:08.993Z,12.53
2022-11-04T06:11:41.650Z,12.93
2022-11-04T06:14:18.303Z,11.90
2022-11-04T06:16:45.284Z,12.85
2022-11-04T06:19:16.538Z,17.15
2022-11-04T06:21:47.631Z,14.63
2022-11-04T06:24:18.688Z,14.15
2022-11-04T06:26:50.011Z,13.83
2022-11-04T06:29:20.776Z,13.55
2022-11-04T06:31:51.685Z,13.32
2022-11-04T06:34:22.555Z,13.13
2022-11-04T06:36:53.507Z,13.85
2022-11-04T06:39:24.540Z,14.33
2022-11-04T06:41:57.944Z,13.18
2022-11-04T06:44:27.946Z,14.03
2022-11-04T06:46:58.921Z,10.48
2022-11-04T06:49:29.937Z,12.93
2022-11-04T06:52:02.973Z,12.88
2022-11-04T06:54:33.819Z,13.72
2022-11-04T06:57:04.991Z,11.50
2022-11-04T06:59:35.821Z,16.00
2022-11-04T07:02:08.093Z,11.65
2022-11-04T07:04:40.755Z,13.32
2022-11-04T07:07:12.047Z,20.72
2022-11-04T07:09:44.289Z,15.83
2022-11-04T07:12:15.209Z,17.45
2022-11-04T07:14:45.988Z,14.93
2022-11-04T07:17:17.173Z,16.75
2022-11-04T07:20:08.408Z,20.70
2022-11-04T07:22:39.240Z,12.53
2022-11-04T07:25:11.137Z,15.20
2022-11-04T07:27:42.267Z,15.83
2022-11-04T07:30:14.161Z,14.90
2022-11-04T07:32:45.059Z,12.00
2022-11-04T07:35:16.125Z,15.08
2022-11-04T07:37:49.700Z,14.20
2022-11-04T07:40:19.904Z,11.43
2022-11-04T07:42:50.767Z,15.20
2022-11-04T07:45:21.569Z,12.98
2022-11-04T07:48:00.419Z,11.63
2022-11-04T07:50:31.751Z,12.35
2022-11-04T07:53:03.738Z,11.80
2022-11-04T07:55:43.068Z,13.43
2022-11-04T08:01:06.476Z,10.20
2022-11-04T08:03:38.615Z,13.75
2022-11-04T08:06:11.967Z,10.48
2022-11-04T08:08:44.639Z,15.68
2022-11-04T08:11:22.438Z,13.98
2022-11-04T08:13:53.408Z,12.10
2022-11-04T08:16:31.420Z,10.40
2022-11-04T08:19:01.532Z,11.12
2022-11-04T08:21:33.564Z,10.85
2022-11-04T08:24:05.140Z,11.10
2022-11-04T08:26:36.176Z,12.30
2022-11-04T08:29:09.377Z,15.32
2022-11-04T08:31:41.048Z,12.45
2022-11-04T08:34:12.823Z,15.30
2022-11-04T08:36:44.142Z,14.00
2022-11-04T08:39:16.635Z,11.63
2022-11-04T08:41:49.703Z,10.75
2022-11-04T08:44:21.082Z,11.22
2022-11-04T08:47:12.775Z,15.80
2022-11-04T08:49:44.125Z,11.57
2022-11-04T08:52:15.493Z,11.57
2022-11-04T08:54:47.678Z,13.22
2022-11-04T08:57:18.785Z,10.58
2022-11-04T08:59:49.720Z,12.82
2022-11-04T09:02:21.095Z,10.72
2022-11-04T09:04:55.833Z,13.45
2022-11-04T09:07:26.951Z,12.70
2022-11-04T09:09:57.864Z,12.07
2022-11-04T09:12:28.698Z,11.95
2022-11-04T09:15:02.184Z,14.05
2022-11-04T09:17:33.617Z,11.73
2022-11-04T09:20:06.668Z,10.10
2022-11-04T09:22:44.664Z,11.08
2022-11-04T09:25:13.300Z,13.60
2022-11-04T09:27:44.123Z,11.15
2022-11-04T09:30:15.883Z,13.22
2022-11-04T09:32:52.413Z,11.00
2022-11-04T09:35:19.659Z,14.63
2022-11-04T09:37:51.814Z,12.53
2022-11-04T09:40:25.309Z,12.63
2022-11-04T09:43:33.826Z,11.35
2022-11-04T09:46:06.269Z,11.08
2022-11-04T09:48:48.395Z,11.22
2022-11-04T09:51:48.093Z,12.90
2022-11-04T09:54:00.083Z,11.12
2022-11-04T09:56:40.225Z,10.98
2022-11-04T09:59:13.954Z,11.97
2022-11-04T10:02:22.259Z,11.80
2022-11-04T10:04:54.197Z,14.60
2022-11-04T10:07:40.038Z,13.05
2022-11-04T10:10:19.109Z,12.95
2022-11-04T10:13:00.286Z,10.70
2022-11-04T10:15:50.372Z,12.98
2022-11-04T10:18:44.860Z,13.25
2022-11-04T10:21:25.024Z,13.28
2022-11-04T10:24:07.494Z,15.48
2022-11-04T10:26:47.575Z,15.08
2022-11-04T10:29:21.293Z,12.70
2022-11-04T10:31:54.076Z,14.13
2022-11-04T10:34:36.382Z,19.82
2022-11-04T10:37:08.831Z,15.35
2022-11-04T10:39:42.232Z,15.83
2022-11-04T10:42:16.058Z,15.75
2022-11-04T10:44:47.989Z,19.05
2022-11-04T10:47:48.668Z,16.48
2022-11-04T10:50:29.825Z,20.20
2022-11-04T10:53:09.183Z,41.08
2022-11-04T10:55:45.782Z,28.38
2022-11-04T10:58:19.240Z,22.65
2022-11-04T11:00:50.541Z,18.90
2022-11-04T11:03:32.986Z,21.68
2022-11-04T11:06:18.347Z,22.70
2022-11-04T11:08:49.897Z,17.73
2022-11-04T11:11:23.659Z,20.43
2022-11-04T11:13:54.781Z,22.62
2022-11-04T11:16:29.871Z,17.17
2022-11-04T11:19:23.762Z,21.05
2022-11-04T11:21:59.846Z,22.07
2022-11-04T11:24:36.210Z,22.80
2022-11-04T11:27:11.154Z,23.07
2022-11-04T11:29:45.139Z,17.40
2022-11-04T11:32:24.376Z,20.02
2022-11-04T11:34:55.576Z,20.85
2022-11-04T11:37:28.616Z,19.50
2022-11-04T11:40:00.035Z,19.35
2022-11-04T11:42:31.025Z,19.45
2022-11-04T11:45:04.397Z,25.82
2022-11-04T11:47:41.652Z,18.25
2022-11-04T11:50:20.893Z,18.73
2022-11-04T11:52:54.020Z,21.17
2022-11-04T11:55:32.909Z,24.12
2022-11-04T12:01:09.860Z,20.57
2022-11-04T12:09:44.312Z,20.90
2022-11-04T12:12:46.885Z,22.00
2022-11-04T12:15:30.633Z,21.37
2022-11-04T12:18:35.261Z,25.12
2022-11-04T12:21:19.559Z,24.20
2022-11-04T12:24:07.089Z,26.73
2022-11-04T12:27:09.373Z,25.70
2022-11-04T12:30:04.356Z,21.42
2022-11-04T12:32:52.376Z,25.92
2022-11-04T12:35:42.795Z,25.97
2022-11-04T12:38:46.307Z,29.40
2022-11-04T12:41:59.459Z,27.67
2022-11-04T12:44:36.899Z,28.47
2022-11-04T12:47:28.805Z,24.87
2022-11-04T12:50:28.021Z,22.58
2022-11-04T12:53:20.842Z,26.25
2022-11-04T12:56:16.275Z,22.80
2022-11-04T12:59:07.670Z,25.02
2022-11-04T13:01:50.164Z,28.45
2022-11-04T13:04:26.673Z,30.50
2022-11-04T13:07:03.164Z,26.35
2022-11-04T13:09:51.602Z,26.42
2022-11-04T13:12:25.238Z,26.07
2022-11-04T13:14:58.544Z,25.05
2022-11-04T13:17:41.607Z,25.05
2022-11-04T13:20:18.901Z,24.05
2022-11-04T13:22:52.232Z,30.85
2022-11-04T13:25:38.004Z,29.80
2022-11-04T13:28:14.622Z,29.40
2022-11-04T13:33:52.682Z,31.10
2022-11-04T13:36:42.038Z,30.15
2022-11-04T13:39:21.600Z,27.50
2022-11-04T13:42:20.063Z,27.82
2022-11-04T13:44:53.988Z,27.60
2022-11-04T13:47:30.064Z,30.82
2022-11-04T13:50:01.085Z,38.50
2022-11-04T13:52:38.500Z,27.87
2022-11-04T13:55:12.530Z,30.32
2022-11-04T13:58:00.937Z,31.30
2022-11-04T14:00:36.809Z,32.83
2022-11-04T14:03:31.707Z,37.63
2022-11-04T14:06:05.196Z,30.08
2022-11-04T14:08:36.911Z,33.38
2022-11-04T14:11:10.272Z,34.50
2022-11-04T14:13:45.781Z,33.13
2022-11-04T14:16:32.518Z,38.30
2022-11-04T14:19:05.964Z,37.30
2022-11-04T14:21:40.214Z,37.25
2022-11-04T14:24:16.602Z,39.48
2022-11-04T14:26:48.126Z,38.05
2022-11-04T14:29:21.589Z,37.45
2022-11-04T14:31:58.103Z,35.08
2022-11-04T14:34:38.845Z,33.50
2022-11-04T14:37:24.150Z,36.48
2022-11-04T14:40:00.394Z,32.48
2022-11-04T14:42:52.993Z,34.40
2022-11-04T14:45:26.665Z,38.80
2022-11-04T14:48:01.486Z,39.73
2022-11-04T14:50:37.302Z,43.60
2022-11-04T14:53:08.796Z,42.80
2022-11-04T14:55:40.324Z,42.08
2022-11-04T14:58:30.511Z,38.48
2022-11-04T15:01:10.649Z,45.17
2022-11-04T15:04:11.514Z,41.55
2022-11-04T15:06:15.673Z,39.63
2022-11-04T15:08:49.216Z,38.65
2022-11-04T15:11:26.525Z,37.53
2022-11-04T15:13:59.907Z,34.80
2022-11-04T15:16:33.099Z,39.40
2022-11-04T15:19:04.167Z,31.77
2022-11-04T15:21:36.398Z,36.17
2022-11-04T15:24:07.777Z,29.32
2022-11-04T15:26:38.579Z,34.27
2022-11-04T15:29:14.224Z,30.52
2022-11-04T15:32:04.925Z,32.40
2022-11-04T15:34:36.522Z,34.60
2022-11-04T15:37:08.948Z,35.40
2022-11-04T15:39:45.116Z,37.40
2022-11-04T15:42:35.613Z,35.13
2022-11-04T15:45:26.674Z,35.75
2022-11-04T15:48:33.253Z,37.73
2022-11-04T15:51:21.344Z,38.78
2022-11-04T15:54:09.473Z,33.55
2022-11-04T15:56:49.167Z,33.33
2022-11-04T15:59:22.508Z,37.10
2022-11-04T16:01:55.568Z,36.28
2022-11-04T16:04:28.531Z,33.13
2022-11-04T16:07:10.745Z,34.05
2022-11-04T16:09:53.127Z,32.38
2022-11-04T16:12:32.966Z,33.25
2022-11-04T16:15:03.936Z,32.80
2022-11-04T16:17:39.270Z,30.40
2022-11-04T16:20:16.660Z,30.85
2022-11-04T16:22:49.225Z,30.02
2022-11-04T16:25:25.387Z,30.88
2022-11-04T16:28:05.789Z,33.30
2022-11-04T16:30:40.845Z,30.85
2022-11-04T16:33:17.070Z,31.77
2022-11-04T16:35:48.009Z,32.23
2022-11-04T16:38:18.809Z,29.27
2022-11-04T16:40:58.169Z,31.65
2022-11-04T16:43:29.336Z,34.27
2022-11-04T16:46:00.166Z,37.58
2022-11-04T16:48:31.721Z,30.97
2022-11-04T16:51:03.837Z,32.35
2022-11-04T16:53:34.708Z,31.55
2022-11-04T16:56:05.648Z,26.17
2022-11-04T16:58:36.895Z,30.43
2022-11-04T17:01:07.972Z,30.08
2022-11-04T17:03:44.183Z,29.07
2022-11-04T17:06:17.900Z,28.25
2022-11-04T17:08:49.062Z,26.62
2022-11-04T17:11:19.951Z,26.95
2022-11-04T17:13:50.848Z,31.40
2022-11-04T17:16:22.078Z,30.72
2022-11-04T17:18:53.128Z,27.77
2022-11-04T17:21:24.939Z,33.80
2022-11-04T17:23:57.150Z,31.17
2022-11-04T17:26:27.999Z,28.23
2022-11-04T17:28:58.996Z,28.15
2022-11-04T17:31:29.833Z,31.65
2022-11-04T17:34:00.715Z,31.87
2022-11-04T17:36:31.697Z,31.10
2022-11-04T17:39:02.829Z,29.15
2022-11-04T17:41:51.093Z,33.40
2022-11-04T17:44:27.711Z,30.43
2022-11-04T17:47:00.845Z,26.25
2022-11-04T17:49:31.845Z,29.27
2022-11-04T17:52:02.878Z,28.65
2022-11-04T17:54:33.966Z,29.67
2022-11-04T17:57:05.168Z,32.20
2022-11-04T17:59:37.035Z,28.10
2022-11-04T18:02:08.423Z,28.87
2022-11-04T18:04:39.610Z,30.92
2022-11-04T18:07:11.461Z,31.68
2022-11-04T18:09:42.578Z,32.38
2022-11-04T18:12:30.990Z,27.80
2022-11-04T18:15:01.826Z,33.00
2022-11-04T18:17:32.745Z,30.08
2022-11-04T18:20:13.669Z,31.95
2022-11-04T18:22:42.351Z,31.15
2022-11-04T18:25:13.786Z,34.88
2022-11-04T18:27:44.803Z,27.90
2022-11-04T18:30:17.210Z,28.38
2022-11-04T18:32:48.820Z,29.70
2022-11-04T18:35:19.856Z,32.25
2022-11-04T18:37:50.870Z,32.15
2022-11-04T18:40:21.735Z,30.12
2022-11-04T18:42:52.783Z,32.55
2022-11-04T18:45:23.670Z,29.30
2022-11-04T18:47:54.515Z,29.70
2022-11-04T18:50:25.421Z,29.80
2022-11-04T18:52:59.950Z,32.20
2022-11-04T18:55:32.048Z,31.73
2022-11-04T18:58:02.843Z,30.15
2022-11-04T19:00:34.639Z,30.08
2022-11-04T19:03:08.283Z,28.80
2022-11-04T19:05:43.764Z,27.55
2022-11-04T19:08:14.774Z,30.60
2022-11-04T19:11:00.220Z,28.80
2022-11-04T19:14:01.910Z,29.57
2022-11-04T19:15:55.061Z,29.40
2022-11-04T19:18:25.963Z,30.35
2022-11-04T19:20:56.803Z,30.85
2022-11-04T19:23:28.585Z,30.20
2022-11-04T19:26:02.182Z,30.75
2022-11-04T19:28:44.544Z,26.35
2022-11-04T19:31:05.164Z,31.97
2022-11-04T19:33:36.452Z,30.88
2022-11-04T19:36:07.761Z,30.97
2022-11-04T19:38:38.811Z,29.67
2022-11-04T19:41:16.626Z,30.43
2022-11-04T19:43:47.469Z,30.17
2022-11-04T19:46:18.524Z,28.83
2022-11-04T19:48:52.017Z,33.60
2022-11-04T19:51:24.657Z,31.73
2022-11-04T19:53:55.326Z,28.83
2022-11-04T19:56:26.989Z,31.68
2022-11-04T19:59:00.511Z,29.57
2022-11-04T20:01:30.804Z,31.07
2022-11-04T20:04:01.801Z,27.00
2022-11-04T20:06:33.325Z,29.65
2022-11-04T20:09:06.377Z,27.07
2022-11-04T20:11:40.052Z,33.05
2022-11-04T20:14:10.863Z,30.48
2022-11-04T20:16:42.290Z,29.80
2022-11-04T20:19:15.241Z,29.95
2022-11-04T20:21:45.303Z,32.93
2022-11-04T20:24:16.327Z,31.05
2022-11-04T20:26:48.727Z,30.02
2022-11-04T20:29:19.862Z,31.87
2022-11-04T20:31:50.893Z,30.70
2022-11-04T20:34:21.830Z,31.35
2022-11-04T20:36:57.723Z,34.90
2022-11-04T20:39:28.784Z,34.25
2022-11-04T20:41:59.632Z,33.45
2022-11-04T20:44:30.454Z,29.72
2022-11-04T20:47:02.315Z,31.48
2022-11-04T20:49:38.856Z,32.25
2022-11-04T20:52:09.213Z,30.47
2022-11-04T20:54:40.034Z,30.08
2022-11-04T20:57:11.014Z,29.77
2022-11-04T20:59:41.891Z,28.55
2022-11-04T21:02:13.938Z,34.30
2022-11-04T21:04:45.074Z,28.23
2022-11-04T21:07:15.929Z,30.92
2022-11-04T21:09:47.720Z,31.27
2022-11-04T21:12:19.263Z,28.05
2022-11-04T21:14:50.490Z,40.88
2022-11-04T21:17:21.338Z,31.52
2022-11-04T21:19:52.663Z,33.70
2022-11-04T21:22:24.745Z,32.85
2022-11-04T21:24:55.541Z,30.17
2022-11-04T21:27:26.497Z,28.17
2022-11-04T21:29:57.595Z,27.85
2022-11-04T21:32:35.891Z,31.90
2022-11-04T21:35:08.566Z,30.45
2022-11-04T21:37:39.647Z,29.37
2022-11-04T21:40:11.445Z,30.62
2022-11-04T21:42:45.861Z,32.88
2022-11-04T21:45:16.817Z,32.08
2022-11-04T21:47:47.733Z,33.88
2022-11-04T21:50:19.222Z,33.30
2022-11-04T21:52:50.170Z,30.85
2022-11-04T21:55:21.255Z,30.37
2022-11-04T21:57:53.362Z,33.63
2022-11-04T22:00:24.429Z,30.95
2022-11-04T22:02:55.495Z,34.70
2022-11-04T22:05:26.511Z,33.20
2022-11-04T22:08:14.488Z,34.00
2022-11-04T22:10:45.298Z,35.30
2022-11-04T22:13:16.088Z,33.75
2022-11-04T22:16:02.152Z,34.35
2022-11-04T22:18:35.758Z,34.00
2022-11-04T22:21:08.716Z,31.25
2022-11-04T22:23:39.945Z,32.58
2022-11-04T22:26:15.964Z,35.05
2022-11-04T22:28:47.240Z,34.30
2022-11-04T22:31:20.606Z,34.92
2022-11-04T22:33:52.207Z,34.53
2022-11-04T22:36:24.536Z,32.28
2022-11-04T22:38:55.514Z,37.53
2022-11-04T22:41:32.079Z,32.98
2022-11-04T22:44:04.316Z,36.38
2022-11-04T22:46:36.400Z,36.63
2022-11-04T22:49:07.217Z,34.73
2022-11-04T22:51:38.027Z,35.23
2022-11-04T22:54:08.935Z,37.15
2022-11-04T22:56:40.274Z,34.78
2022-11-04T22:59:12.343Z,36.77
2022-11-04T23:01:43.280Z,34.25
2022-11-04T23:04:15.373Z,32.42
2022-11-04T23:06:46.331Z,34.73
2022-11-04T23:09:17.153Z,36.48
2022-11-04T23:12:05.680Z,36.90
2022-11-04T23:14:46.878Z,36.77
2022-11-04T23:17:37.366Z,34.27
2022-11-04T23:20:11.050Z,34.75
2022-11-04T23:22:59.580Z,32.70
2022-11-04T23:25:30.504Z,38.95
2022-11-04T23:28:19.063Z,39.27
2022-11-04T23:30:52.407Z,39.33
2022-11-04T23:33:24.701Z,37.58
2022-11-04T23:36:13.325Z,38.95
2022-11-04T23:38:50.056Z,40.92
2022-11-04T23:41:34.838Z,36.40
2022-11-04T23:44:06.732Z,38.70
2022-11-04T23:46:56.461Z,39.67
2022-11-04T23:49:47.341Z,43.20
2022-11-04T23:52:37.474Z,41.77
2022-11-04T23:55:11.517Z,41.30
2022-11-04T23:58:00.776Z,41.08
